Gonvick, Minnesota
Current Conditions -  °F | °C
As of 12:14 AM on Saturday 29 Nov 2014 (Local Time) from KFSE Reporting Station
Clear Clear  
Wind Chill:   Ceiling: Unl
Heat Index: 16°   Visibility: 10mi
Dew Point: 12°   Wind: 7mph
Humidity: 86%   Direction: 160°SSE
Pressure: 29.55"   Gusts: NA
Location:  47.74°N, 95.51°W
Report Text: KFSE 290614Z AUTO 16006KT 10SM CLR M09/M11 A2955 RMK AO2
Loading
Personal Weather Stations






























Interactive Weather Map New forecast layout! Learn more

10-Day Weather Forecast

Advertisements
Track Severe Weather on mobile